Hlavní strana
METAR-TAF:

METAR-TAF

Letiště :

Zaqatala, Ázerbájdžán

zeměpisná šířka: 41-33-44N, zeměpisná délka: 46-40-02E, výška: 330 m

Aktuální stav počasí

Zpráva byla vytvořena před 1 hodinou a 9 minutami, v 00:00 UTC
Východojihovýchodní vítr 4 kt
Teplota 11°C
Vlhkost vzduchu 87%
Tlak 1020 hPa
Viditelnost 10 km a více
Polojasno ve výšce 9000 ft

METAR: UBBY 060000Z 11004KT 9999 SCT090 11/09 Q1020 R33/////// NOSIG RMK MT OP

Čas: 05:09 (01:09 UTC)

Předpověď počasí

Zpráva byla vytvořena před 2 hodinami a 9 minutami, v 23:00 UTC
Předpověď platná od 06 v 00 UTC do 06 v 09 UTC
vítr z různých směrů 4 kt
Viditelnost: 6000 m
Skoro jasno ve výšce 2000 ft
Polojasno ve výšce 8000 ft
Pravděpodobnost 40% :
Dočasný
od 06 v 01 UTC do 06 v 05 UTC
Viditelnost: 1500 m
Oblačno až skoro zataženo ve výšce 500 ft
mrholení, kouřmo

TAF: UBBY 052300Z 0600/0609 VRB04KT 6000 FEW020 SCT080 PROB40 TEMPO 0601/0605 1500 DZ BR BKN005

Stav a předpovědi počasí z více než 4 000 letišť (zprávy METAR a TAF).

Červené a žluté tečky na mapě představují dostupné meteorologické stanice.

Když kurzor umístíte na tečku, zobrazí se název stanice.

Pak kliknutím zobrazíte stav a předpověď počasí.

Chcete-li změnit mapu, kliknutím na zelené tlačítko se znaménkem +mapu přiblížíte, kliknutím na zelené tlačítko se znaménkem – mapu oddálíte a kliknutím na zelené šipky přejdete na sousední mapy.


METAR-TAF: